sensor_id;sensor_type;location;lat;lon;timestamp;P1;durP1;ratioP1;P2;durP2;ratioP2
22007;SDS011;11168;56.976;24.168;2022-08-30T00:02:10;12.45;;;6.38;;
22007;SDS011;11168;56.976;24.168;2022-08-30T00:04:37;14.77;;;6.22;;
22007;SDS011;11168;56.976;24.168;2022-08-30T00:07:05;11.52;;;6.65;;
22007;SDS011;11168;56.976;24.168;2022-08-30T00:09:32;11.40;;;6.50;;
22007;SDS011;11168;56.976;24.168;2022-08-30T00:12:00;16.80;;;7.00;;
22007;SDS011;11168;56.976;24.168;2022-08-30T00:14:28;15.63;;;6.93;;
22007;SDS011;11168;56.976;24.168;2022-08-30T00:16:55;11.00;;;6.35;;
22007;SDS011;11168;56.976;24.168;2022-08-30T00:19:23;16.15;;;6.80;;
22007;SDS011;11168;56.976;24.168;2022-08-30T00:21:50;12.88;;;7.07;;
22007;SDS011;11168;56.976;24.168;2022-08-30T00:24:17;12.30;;;6.53;;
22007;SDS011;11168;56.976;24.168;2022-08-30T00:26:45;13.75;;;6.75;;
22007;SDS011;11168;56.976;24.168;2022-08-30T00:29:12;12.05;;;7.18;;
22007;SDS011;11168;56.976;24.168;2022-08-30T00:31:39;13.82;;;6.82;;
22007;SDS011;11168;56.976;24.168;2022-08-30T00:34:07;14.68;;;6.45;;
22007;SDS011;11168;56.976;24.168;2022-08-30T00:36:34;13.88;;;7.15;;
22007;SDS011;11168;56.976;24.168;2022-08-30T00:39:02;13.27;;;6.35;;
22007;SDS011;11168;56.976;24.168;2022-08-30T00:41:30;14.55;;;6.85;;
22007;SDS011;11168;56.976;24.168;2022-08-30T00:43:58;15.77;;;6.95;;
22007;SDS011;11168;56.976;24.168;2022-08-30T00:46:26;13.68;;;6.55;;
22007;SDS011;11168;56.976;24.168;2022-08-30T00:48:53;9.65;;;6.65;;
22007;SDS011;11168;56.976;24.168;2022-08-30T00:51:22;11.57;;;6.72;;
22007;SDS011;11168;56.976;24.168;2022-08-30T00:53:53;14.35;;;6.78;;
22007;SDS011;11168;56.976;24.168;2022-08-30T00:56:21;10.40;;;6.93;;
22007;SDS011;11168;56.976;24.168;2022-08-30T00:58:51;11.50;;;6.40;;
22007;SDS011;11168;56.976;24.168;2022-08-30T01:01:19;14.80;;;6.20;;
22007;SDS011;11168;56.976;24.168;2022-08-30T01:03:47;13.77;;;6.30;;
22007;SDS011;11168;56.976;24.168;2022-08-30T01:06:15;10.32;;;6.22;;
22007;SDS011;11168;56.976;24.168;2022-08-30T01:08:43;14.93;;;6.72;;
22007;SDS011;11168;56.976;24.168;2022-08-30T01:11:12;9.80;;;7.30;;
22007;SDS011;11168;56.976;24.168;2022-08-30T01:13:41;13.40;;;7.32;;
22007;SDS011;11168;56.976;24.168;2022-08-30T01:16:09;11.55;;;7.45;;
22007;SDS011;11168;56.976;24.168;2022-08-30T01:18:36;12.30;;;7.15;;
22007;SDS011;11168;56.976;24.168;2022-08-30T01:26:03;16.27;;;7.40;;
22007;SDS011;11168;56.976;24.168;2022-08-30T01:28:31;12.07;;;7.45;;
22007;SDS011;11168;56.976;24.168;2022-08-30T01:30:59;11.45;;;6.88;;
22007;SDS011;11168;56.976;24.168;2022-08-30T01:33:27;12.70;;;6.40;;
22007;SDS011;11168;56.976;24.168;2022-08-30T01:35:56;13.05;;;7.45;;
22007;SDS011;11168;56.976;24.168;2022-08-30T01:38:25;10.18;;;6.43;;
22007;SDS011;11168;56.976;24.168;2022-08-30T01:43:38;12.10;;;7.38;;
22007;SDS011;11168;56.976;24.168;2022-08-30T01:46:06;12.65;;;8.10;;
22007;SDS011;11168;56.976;24.168;2022-08-30T01:48:33;12.32;;;7.80;;
22007;SDS011;11168;56.976;24.168;2022-08-30T01:51:01;11.05;;;6.65;;
22007;SDS011;11168;56.976;24.168;2022-08-30T01:53:28;11.25;;;7.10;;
22007;SDS011;11168;56.976;24.168;2022-08-30T01:55:56;13.23;;;6.38;;
22007;SDS011;11168;56.976;24.168;2022-08-30T01:58:23;13.30;;;6.45;;
22007;SDS011;11168;56.976;24.168;2022-08-30T02:00:50;11.95;;;6.75;;
22007;SDS011;11168;56.976;24.168;2022-08-30T02:03:18;10.10;;;6.80;;
22007;SDS011;11168;56.976;24.168;2022-08-30T02:05:45;9.00;;;6.57;;
22007;SDS011;11168;56.976;24.168;2022-08-30T02:08:13;10.82;;;6.95;;
22007;SDS011;11168;56.976;24.168;2022-08-30T02:10:40;9.45;;;6.43;;
22007;SDS011;11168;56.976;24.168;2022-08-30T02:13:08;9.27;;;6.35;;
22007;SDS011;11168;56.976;24.168;2022-08-30T02:15:35;10.73;;;6.57;;
22007;SDS011;11168;56.976;24.168;2022-08-30T02:18:07;9.48;;;6.43;;
22007;SDS011;11168;56.976;24.168;2022-08-30T02:20:37;9.43;;;6.28;;
22007;SDS011;11168;56.976;24.168;2022-08-30T02:23:04;10.48;;;6.03;;
22007;SDS011;11168;56.976;24.168;2022-08-30T02:25:32;10.40;;;6.65;;
22007;SDS011;11168;56.976;24.168;2022-08-30T02:27:59;11.57;;;6.28;;
22007;SDS011;11168;56.976;24.168;2022-08-30T02:30:27;9.75;;;6.70;;
22007;SDS011;11168;56.976;24.168;2022-08-30T02:32:54;10.07;;;6.55;;
22007;SDS011;11168;56.976;24.168;2022-08-30T02:35:22;9.70;;;6.35;;
22007;SDS011;11168;56.976;24.168;2022-08-30T02:37:49;10.25;;;6.03;;
22007;SDS011;11168;56.976;24.168;2022-08-30T02:40:17;9.25;;;6.47;;
22007;SDS011;11168;56.976;24.168;2022-08-30T02:42:44;10.13;;;6.18;;
22007;SDS011;11168;56.976;24.168;2022-08-30T02:45:11;12.88;;;6.57;;
22007;SDS011;11168;56.976;24.168;2022-08-30T02:47:40;12.38;;;7.00;;
22007;SDS011;11168;56.976;24.168;2022-08-30T02:50:12;11.57;;;6.97;;
22007;SDS011;11168;56.976;24.168;2022-08-30T02:52:39;12.65;;;6.47;;
22007;SDS011;11168;56.976;24.168;2022-08-30T02:55:10;8.45;;;6.47;;
22007;SDS011;11168;56.976;24.168;2022-08-30T02:57:37;14.27;;;7.20;;
22007;SDS011;11168;56.976;24.168;2022-08-30T03:00:08;11.45;;;7.10;;
22007;SDS011;11168;56.976;24.168;2022-08-30T03:05:03;9.13;;;6.63;;
22007;SDS011;11168;56.976;24.168;2022-08-30T03:07:31;9.40;;;6.85;;
22007;SDS011;11168;56.976;24.168;2022-08-30T03:09:59;11.27;;;6.85;;
22007;SDS011;11168;56.976;24.168;2022-08-30T03:12:26;14.75;;;7.13;;
22007;SDS011;11168;56.976;24.168;2022-08-30T03:14:54;12.55;;;7.78;;
22007;SDS011;11168;56.976;24.168;2022-08-30T03:17:21;17.55;;;8.93;;
22007;SDS011;11168;56.976;24.168;2022-08-30T03:19:49;12.52;;;7.78;;
22007;SDS011;11168;56.976;24.168;2022-08-30T03:22:16;11.45;;;7.93;;
22007;SDS011;11168;56.976;24.168;2022-08-30T03:24:43;13.00;;;8.20;;
22007;SDS011;11168;56.976;24.168;2022-08-30T03:27:11;12.93;;;7.72;;
22007;SDS011;11168;56.976;24.168;2022-08-30T03:29:38;11.68;;;9.02;;
22007;SDS011;11168;56.976;24.168;2022-08-30T03:32:05;11.98;;;9.00;;
22007;SDS011;11168;56.976;24.168;2022-08-30T03:34:33;13.25;;;9.18;;
22007;SDS011;11168;56.976;24.168;2022-08-30T03:37:01;17.35;;;10.23;;
22007;SDS011;11168;56.976;24.168;2022-08-30T03:39:28;15.18;;;9.90;;
22007;SDS011;11168;56.976;24.168;2022-08-30T03:41:56;14.55;;;10.20;;
22007;SDS011;11168;56.976;24.168;2022-08-30T03:44:24;15.32;;;9.98;;
22007;SDS011;11168;56.976;24.168;2022-08-30T03:46:52;14.38;;;9.93;;
22007;SDS011;11168;56.976;24.168;2022-08-30T03:49:21;15.13;;;10.82;;
22007;SDS011;11168;56.976;24.168;2022-08-30T03:51:49;14.20;;;9.63;;
22007;SDS011;11168;56.976;24.168;2022-08-30T03:54:17;15.48;;;10.18;;
22007;SDS011;11168;56.976;24.168;2022-08-30T03:56:44;12.15;;;9.15;;
22007;SDS011;11168;56.976;24.168;2022-08-30T03:59:11;13.88;;;9.43;;
22007;SDS011;11168;56.976;24.168;2022-08-30T04:01:39;12.23;;;9.98;;
22007;SDS011;11168;56.976;24.168;2022-08-30T04:04:07;13.05;;;9.88;;
22007;SDS011;11168;56.976;24.168;2022-08-30T04:06:34;16.50;;;10.82;;
22007;SDS011;11168;56.976;24.168;2022-08-30T04:09:02;12.18;;;10.18;;
22007;SDS011;11168;56.976;24.168;2022-08-30T04:11:29;16.60;;;10.10;;
22007;SDS011;11168;56.976;24.168;2022-08-30T04:13:57;12.00;;;9.50;;
22007;SDS011;11168;56.976;24.168;2022-08-30T04:16:24;13.15;;;9.77;;
22007;SDS011;11168;56.976;24.168;2022-08-30T04:18:52;13.07;;;9.65;;
22007;SDS011;11168;56.976;24.168;2022-08-30T04:21:19;11.73;;;9.55;;
22007;SDS011;11168;56.976;24.168;2022-08-30T04:23:46;11.70;;;9.43;;
22007;SDS011;11168;56.976;24.168;2022-08-30T04:26:14;12.63;;;10.25;;
22007;SDS011;11168;56.976;24.168;2022-08-30T04:28:41;14.57;;;9.40;;
22007;SDS011;11168;56.976;24.168;2022-08-30T04:31:10;14.48;;;9.35;;
22007;SDS011;11168;56.976;24.168;2022-08-30T04:33:40;11.93;;;9.25;;
22007;SDS011;11168;56.976;24.168;2022-08-30T04:36:08;15.45;;;10.38;;
22007;SDS011;11168;56.976;24.168;2022-08-30T04:38:36;16.27;;;11.55;;
22007;SDS011;11168;56.976;24.168;2022-08-30T04:41:08;18.00;;;10.90;;
22007;SDS011;11168;56.976;24.168;2022-08-30T04:43:37;18.63;;;11.23;;
22007;SDS011;11168;56.976;24.168;2022-08-30T04:46:05;13.70;;;10.32;;
22007;SDS011;11168;56.976;24.168;2022-08-30T04:48:34;14.90;;;8.95;;
22007;SDS011;11168;56.976;24.168;2022-08-30T04:51:02;15.43;;;8.05;;
22007;SDS011;11168;56.976;24.168;2022-08-30T04:53:30;13.98;;;8.07;;
22007;SDS011;11168;56.976;24.168;2022-08-30T04:55:57;11.88;;;7.13;;
22007;SDS011;11168;56.976;24.168;2022-08-30T04:58:25;9.02;;;7.13;;
22007;SDS011;11168;56.976;24.168;2022-08-30T05:00:52;10.75;;;6.85;;
22007;SDS011;11168;56.976;24.168;2022-08-30T05:03:20;9.13;;;6.70;;
22007;SDS011;11168;56.976;24.168;2022-08-30T05:05:47;9.02;;;6.32;;
22007;SDS011;11168;56.976;24.168;2022-08-30T05:08:16;9.43;;;6.35;;
22007;SDS011;11168;56.976;24.168;2022-08-30T05:10:51;8.50;;;7.10;;
22007;SDS011;11168;56.976;24.168;2022-08-30T05:13:19;8.32;;;6.35;;
22007;SDS011;11168;56.976;24.168;2022-08-30T05:16:02;12.05;;;7.63;;
22007;SDS011;11168;56.976;24.168;2022-08-30T05:18:30;11.57;;;7.35;;
22007;SDS011;11168;56.976;24.168;2022-08-30T05:21:40;9.63;;;6.72;;
22007;SDS011;11168;56.976;24.168;2022-08-30T05:23:48;9.45;;;6.50;;
22007;SDS011;11168;56.976;24.168;2022-08-30T05:26:17;12.30;;;7.40;;
22007;SDS011;11168;56.976;24.168;2022-08-30T05:28:46;11.00;;;6.75;;
22007;SDS011;11168;56.976;24.168;2022-08-30T05:31:16;20.00;;;7.63;;
22007;SDS011;11168;56.976;24.168;2022-08-30T05:33:44;44.80;;;9.48;;
22007;SDS011;11168;56.976;24.168;2022-08-30T05:36:12;35.83;;;9.43;;
22007;SDS011;11168;56.976;24.168;2022-08-30T05:38:40;22.30;;;8.30;;
22007;SDS011;11168;56.976;24.168;2022-08-30T05:41:09;15.90;;;7.78;;
22007;SDS011;11168;56.976;24.168;2022-08-30T05:43:36;13.82;;;7.85;;
22007;SDS011;11168;56.976;24.168;2022-08-30T05:46:05;10.57;;;7.35;;
22007;SDS011;11168;56.976;24.168;2022-08-30T05:48:33;9.52;;;6.68;;
22007;SDS011;11168;56.976;24.168;2022-08-30T05:51:02;13.40;;;7.15;;
22007;SDS011;11168;56.976;24.168;2022-08-30T05:53:30;12.40;;;7.28;;
22007;SDS011;11168;56.976;24.168;2022-08-30T05:55:57;11.43;;;7.10;;
22007;SDS011;11168;56.976;24.168;2022-08-30T05:58:26;12.48;;;7.03;;
22007;SDS011;11168;56.976;24.168;2022-08-30T06:00:54;10.50;;;6.22;;
22007;SDS011;11168;56.976;24.168;2022-08-30T06:03:21;14.13;;;7.13;;
22007;SDS011;11168;56.976;24.168;2022-08-30T06:05:52;11.27;;;6.57;;
22007;SDS011;11168;56.976;24.168;2022-08-30T06:08:20;9.40;;;5.70;;
22007;SDS011;11168;56.976;24.168;2022-08-30T06:10:47;12.35;;;6.10;;
22007;SDS011;11168;56.976;24.168;2022-08-30T06:13:15;16.65;;;7.10;;
22007;SDS011;11168;56.976;24.168;2022-08-30T06:15:42;12.55;;;7.10;;
22007;SDS011;11168;56.976;24.168;2022-08-30T06:18:11;12.27;;;6.40;;
22007;SDS011;11168;56.976;24.168;2022-08-30T06:20:42;16.60;;;6.70;;
22007;SDS011;11168;56.976;24.168;2022-08-30T06:23:15;11.13;;;7.05;;
22007;SDS011;11168;56.976;24.168;2022-08-30T06:25:43;9.13;;;5.63;;
22007;SDS011;11168;56.976;24.168;2022-08-30T06:28:10;9.82;;;5.78;;
22007;SDS011;11168;56.976;24.168;2022-08-30T06:30:39;11.32;;;5.93;;
22007;SDS011;11168;56.976;24.168;2022-08-30T06:33:06;6.45;;;5.60;;
22007;SDS011;11168;56.976;24.168;2022-08-30T06:35:34;7.13;;;5.80;;
22007;SDS011;11168;56.976;24.168;2022-08-30T06:38:21;9.05;;;5.20;;
22007;SDS011;11168;56.976;24.168;2022-08-30T06:40:49;8.32;;;5.70;;
22007;SDS011;11168;56.976;24.168;2022-08-30T06:43:16;8.25;;;5.30;;
22007;SDS011;11168;56.976;24.168;2022-08-30T06:45:43;6.68;;;4.65;;
22007;SDS011;11168;56.976;24.168;2022-08-30T06:48:11;7.65;;;5.00;;
22007;SDS011;11168;56.976;24.168;2022-08-30T06:50:38;10.00;;;5.15;;
22007;SDS011;11168;56.976;24.168;2022-08-30T06:53:07;8.07;;;5.10;;
22007;SDS011;11168;56.976;24.168;2022-08-30T06:55:35;11.07;;;5.55;;
22007;SDS011;11168;56.976;24.168;2022-08-30T06:58:03;6.47;;;5.30;;
22007;SDS011;11168;56.976;24.168;2022-08-30T07:00:30;8.75;;;4.93;;
22007;SDS011;11168;56.976;24.168;2022-08-30T07:02:58;7.90;;;4.97;;
22007;SDS011;11168;56.976;24.168;2022-08-30T07:05:25;7.40;;;4.80;;
22007;SDS011;11168;56.976;24.168;2022-08-30T07:07:52;5.38;;;4.53;;
22007;SDS011;11168;56.976;24.168;2022-08-30T07:10:20;6.82;;;4.72;;
22007;SDS011;11168;56.976;24.168;2022-08-30T07:12:47;5.75;;;4.13;;
22007;SDS011;11168;56.976;24.168;2022-08-30T07:15:15;6.53;;;4.38;;
22007;SDS011;11168;56.976;24.168;2022-08-30T07:17:45;7.38;;;5.07;;
22007;SDS011;11168;56.976;24.168;2022-08-30T07:20:32;6.53;;;3.75;;
22007;SDS011;11168;56.976;24.168;2022-08-30T07:23:05;4.20;;;3.80;;
22007;SDS011;11168;56.976;24.168;2022-08-30T07:25:35;7.13;;;4.65;;
22007;SDS011;11168;56.976;24.168;2022-08-30T07:28:02;6.13;;;4.38;;
22007;SDS011;11168;56.976;24.168;2022-08-30T07:30:31;5.45;;;3.80;;
22007;SDS011;11168;56.976;24.168;2022-08-30T07:32:58;4.40;;;4.00;;
22007;SDS011;11168;56.976;24.168;2022-08-30T07:35:26;7.07;;;3.83;;
22007;SDS011;11168;56.976;24.168;2022-08-30T07:37:53;4.53;;;4.10;;
22007;SDS011;11168;56.976;24.168;2022-08-30T07:40:21;3.78;;;3.17;;
22007;SDS011;11168;56.976;24.168;2022-08-30T07:42:48;5.13;;;3.45;;
22007;SDS011;11168;56.976;24.168;2022-08-30T07:45:16;4.18;;;3.17;;
22007;SDS011;11168;56.976;24.168;2022-08-30T07:47:46;5.22;;;3.28;;
22007;SDS011;11168;56.976;24.168;2022-08-30T07:50:14;6.37;;;3.30;;
22007;SDS011;11168;56.976;24.168;2022-08-30T07:52:41;3.40;;;3.05;;
22007;SDS011;11168;56.976;24.168;2022-08-30T07:55:09;6.03;;;3.22;;
22007;SDS011;11168;56.976;24.168;2022-08-30T07:57:37;3.58;;;3.20;;
22007;SDS011;11168;56.976;24.168;2022-08-30T08:00:04;5.05;;;3.13;;
22007;SDS011;11168;56.976;24.168;2022-08-30T08:02:32;4.70;;;2.80;;
22007;SDS011;11168;56.976;24.168;2022-08-30T08:04:59;3.88;;;3.08;;
22007;SDS011;11168;56.976;24.168;2022-08-30T08:07:27;3.60;;;2.92;;
22007;SDS011;11168;56.976;24.168;2022-08-30T08:09:54;3.35;;;2.80;;
22007;SDS011;11168;56.976;24.168;2022-08-30T08:12:21;5.07;;;3.10;;
22007;SDS011;11168;56.976;24.168;2022-08-30T08:14:49;5.90;;;3.00;;
22007;SDS011;11168;56.976;24.168;2022-08-30T08:17:16;4.18;;;2.85;;
22007;SDS011;11168;56.976;24.168;2022-08-30T08:19:43;3.95;;;2.72;;
22007;SDS011;11168;56.976;24.168;2022-08-30T08:22:11;2.58;;;2.35;;
22007;SDS011;11168;56.976;24.168;2022-08-30T08:24:47;5.10;;;3.08;;
22007;SDS011;11168;56.976;24.168;2022-08-30T08:27:15;4.03;;;3.00;;
22007;SDS011;11168;56.976;24.168;2022-08-30T08:29:42;4.72;;;3.00;;
22007;SDS011;11168;56.976;24.168;2022-08-30T08:32:10;4.50;;;3.03;;
22007;SDS011;11168;56.976;24.168;2022-08-30T08:34:37;5.15;;;3.10;;
22007;SDS011;11168;56.976;24.168;2022-08-30T08:37:05;5.93;;;2.85;;
22007;SDS011;11168;56.976;24.168;2022-08-30T08:39:32;3.38;;;3.03;;
22007;SDS011;11168;56.976;24.168;2022-08-30T08:42:14;4.78;;;3.42;;
22007;SDS011;11168;56.976;24.168;2022-08-30T08:47:36;4.78;;;3.55;;
22007;SDS011;11168;56.976;24.168;2022-08-30T08:50:13;4.38;;;3.72;;
22007;SDS011;11168;56.976;24.168;2022-08-30T08:52:48;6.05;;;5.05;;
22007;SDS011;11168;56.976;24.168;2022-08-30T08:55:47;4.88;;;4.03;;
22007;SDS011;11168;56.976;24.168;2022-08-30T08:58:26;6.35;;;4.40;;
22007;SDS011;11168;56.976;24.168;2022-08-30T09:00:54;10.43;;;6.40;;
22007;SDS011;11168;56.976;24.168;2022-08-30T09:03:24;5.22;;;4.03;;
22007;SDS011;11168;56.976;24.168;2022-08-30T09:05:52;7.05;;;3.83;;
22007;SDS011;11168;56.976;24.168;2022-08-30T09:08:21;5.70;;;3.97;;
22007;SDS011;11168;56.976;24.168;2022-08-30T09:11:02;3.80;;;3.50;;
22007;SDS011;11168;56.976;24.168;2022-08-30T09:13:31;4.90;;;4.30;;
22007;SDS011;11168;56.976;24.168;2022-08-30T09:15:58;5.40;;;4.13;;
22007;SDS011;11168;56.976;24.168;2022-08-30T09:18:40;4.78;;;4.18;;
22007;SDS011;11168;56.976;24.168;2022-08-30T09:21:28;4.50;;;3.97;;
22007;SDS011;11168;56.976;24.168;2022-08-30T09:23:57;5.93;;;3.38;;
22007;SDS011;11168;56.976;24.168;2022-08-30T09:26:29;6.22;;;4.75;;
22007;SDS011;11168;56.976;24.168;2022-08-30T09:28:57;3.45;;;2.80;;
22007;SDS011;11168;56.976;24.168;2022-08-30T09:31:44;4.07;;;2.85;;
22007;SDS011;11168;56.976;24.168;2022-08-30T09:34:15;3.75;;;2.65;;
22007;SDS011;11168;56.976;24.168;2022-08-30T09:36:44;3.05;;;2.65;;
22007;SDS011;11168;56.976;24.168;2022-08-30T09:39:30;3.28;;;2.60;;
22007;SDS011;11168;56.976;24.168;2022-08-30T09:44:41;2.78;;;2.47;;
22007;SDS011;11168;56.976;24.168;2022-08-30T09:47:17;4.07;;;2.30;;
22007;SDS011;11168;56.976;24.168;2022-08-30T09:49:49;2.55;;;2.35;;
22007;SDS011;11168;56.976;24.168;2022-08-30T10:07:57;0.97;;;0.97;;
22007;SDS011;11168;56.976;24.168;2022-08-30T10:18:19;1.60;;;1.38;;
22007;SDS011;11168;56.976;24.168;2022-08-30T10:23:28;1.42;;;1.30;;
22007;SDS011;11168;56.976;24.168;2022-08-30T10:28:28;11.15;;;1.67;;
22007;SDS011;11168;56.976;24.168;2022-08-30T10:31:02;2.00;;;1.10;;
22007;SDS011;11168;56.976;24.168;2022-08-30T10:33:33;1.52;;;1.42;;
22007;SDS011;11168;56.976;24.168;2022-08-30T10:36:02;1.42;;;1.05;;
22007;SDS011;11168;56.976;24.168;2022-08-30T10:38:36;1.30;;;1.20;;
22007;SDS011;11168;56.976;24.168;2022-08-30T10:41:40;1.10;;;1.00;;
22007;SDS011;11168;56.976;24.168;2022-08-30T10:49:18;0.80;;;0.80;;
22007;SDS011;11168;56.976;24.168;2022-08-30T10:51:49;3.10;;;1.20;;
22007;SDS011;11168;56.976;24.168;2022-08-30T10:54:20;2.85;;;1.40;;
22007;SDS011;11168;56.976;24.168;2022-08-30T10:56:50;2.50;;;1.42;;
22007;SDS011;11168;56.976;24.168;2022-08-30T10:59:19;2.95;;;1.27;;
22007;SDS011;11168;56.976;24.168;2022-08-30T11:07:25;1.38;;;0.60;;
22007;SDS011;11168;56.976;24.168;2022-08-30T11:12:35;0.77;;;0.73;;
22007;SDS011;11168;56.976;24.168;2022-08-30T11:15:14;0.47;;;0.47;;
22007;SDS011;11168;56.976;24.168;2022-08-30T11:20:28;0.90;;;0.70;;
22007;SDS011;11168;56.976;24.168;2022-08-30T11:23:12;0.60;;;0.60;;
22007;SDS011;11168;56.976;24.168;2022-08-30T11:33:41;0.73;;;0.50;;
22007;SDS011;11168;56.976;24.168;2022-08-30T11:39:41;0.73;;;0.60;;
22007;SDS011;11168;56.976;24.168;2022-08-30T11:42:12;1.45;;;0.73;;
22007;SDS011;11168;56.976;24.168;2022-08-30T11:44:39;0.50;;;0.50;;
22007;SDS011;11168;56.976;24.168;2022-08-30T11:50:00;0.57;;;0.57;;
22007;SDS011;11168;56.976;24.168;2022-08-30T11:52:45;1.58;;;0.75;;
22007;SDS011;11168;56.976;24.168;2022-08-30T11:58:04;0.63;;;0.60;;
22007;SDS011;11168;56.976;24.168;2022-08-30T12:00:38;1.58;;;0.70;;
22007;SDS011;11168;56.976;24.168;2022-08-30T12:10:57;3.70;;;0.98;;
22007;SDS011;11168;56.976;24.168;2022-08-30T12:18:41;1.30;;;0.80;;
22007;SDS011;11168;56.976;24.168;2022-08-30T12:21:22;3.30;;;1.10;;
22007;SDS011;11168;56.976;24.168;2022-08-30T12:23:56;1.02;;;0.70;;
22007;SDS011;11168;56.976;24.168;2022-08-30T12:26:30;1.55;;;0.80;;
22007;SDS011;11168;56.976;24.168;2022-08-30T12:31:47;3.05;;;1.55;;
22007;SDS011;11168;56.976;24.168;2022-08-30T12:34:19;2.03;;;0.90;;
22007;SDS011;11168;56.976;24.168;2022-08-30T12:39:22;1.83;;;1.00;;
22007;SDS011;11168;56.976;24.168;2022-08-30T12:41:50;1.25;;;0.93;;
22007;SDS011;11168;56.976;24.168;2022-08-30T12:44:19;3.90;;;0.80;;
22007;SDS011;11168;56.976;24.168;2022-08-30T12:46:48;2.10;;;0.70;;
22007;SDS011;11168;56.976;24.168;2022-08-30T12:49:23;0.70;;;0.70;;
22007;SDS011;11168;56.976;24.168;2022-08-30T12:51:52;3.00;;;0.70;;
22007;SDS011;11168;56.976;24.168;2022-08-30T12:54:20;2.25;;;0.80;;
22007;SDS011;11168;56.976;24.168;2022-08-30T12:56:54;0.93;;;0.65;;
22007;SDS011;11168;56.976;24.168;2022-08-30T13:02:19;0.68;;;0.68;;
22007;SDS011;11168;56.976;24.168;2022-08-30T13:04:47;1.52;;;0.55;;
22007;SDS011;11168;56.976;24.168;2022-08-30T13:09:58;0.63;;;0.60;;
22007;SDS011;11168;56.976;24.168;2022-08-30T13:12:26;0.98;;;0.70;;
22007;SDS011;11168;56.976;24.168;2022-08-30T13:15:12;1.55;;;0.68;;
22007;SDS011;11168;56.976;24.168;2022-08-30T13:17:43;0.80;;;0.57;;
22007;SDS011;11168;56.976;24.168;2022-08-30T13:22:41;2.08;;;0.98;;
22007;SDS011;11168;56.976;24.168;2022-08-30T13:25:25;0.50;;;0.50;;
22007;SDS011;11168;56.976;24.168;2022-08-30T13:27:54;1.70;;;0.73;;
22007;SDS011;11168;56.976;24.168;2022-08-30T13:30:22;1.58;;;0.50;;
22007;SDS011;11168;56.976;24.168;2022-08-30T13:32:51;2.65;;;0.60;;
22007;SDS011;11168;56.976;24.168;2022-08-30T13:35:18;1.13;;;0.63;;
22007;SDS011;11168;56.976;24.168;2022-08-30T13:37:45;3.90;;;0.60;;
22007;SDS011;11168;56.976;24.168;2022-08-30T13:42:44;2.58;;;0.73;;
22007;SDS011;11168;56.976;24.168;2022-08-30T13:45:12;1.55;;;0.80;;
22007;SDS011;11168;56.976;24.168;2022-08-30T13:48:00;1.27;;;0.63;;
22007;SDS011;11168;56.976;24.168;2022-08-30T13:50:27;0.73;;;0.73;;
22007;SDS011;11168;56.976;24.168;2022-08-30T13:52:55;1.15;;;0.70;;
22007;SDS011;11168;56.976;24.168;2022-08-30T13:55:23;3.30;;;0.90;;
22007;SDS011;11168;56.976;24.168;2022-08-30T13:57:50;1.55;;;0.80;;
22007;SDS011;11168;56.976;24.168;2022-08-30T14:00:21;1.63;;;0.80;;
22007;SDS011;11168;56.976;24.168;2022-08-30T14:02:50;0.63;;;0.63;;
22007;SDS011;11168;56.976;24.168;2022-08-30T14:05:26;1.42;;;1.23;;
22007;SDS011;11168;56.976;24.168;2022-08-30T14:08:16;1.80;;;1.10;;
22007;SDS011;11168;56.976;24.168;2022-08-30T14:11:03;2.28;;;1.50;;
22007;SDS011;11168;56.976;24.168;2022-08-30T14:13:31;2.22;;;1.10;;
22007;SDS011;11168;56.976;24.168;2022-08-30T14:15:59;3.03;;;1.33;;
22007;SDS011;11168;56.976;24.168;2022-08-30T14:18:46;2.80;;;1.40;;
22007;SDS011;11168;56.976;24.168;2022-08-30T14:21:14;1.60;;;1.30;;
22007;SDS011;11168;56.976;24.168;2022-08-30T14:23:46;4.10;;;1.30;;
22007;SDS011;11168;56.976;24.168;2022-08-30T14:26:34;4.78;;;1.30;;
22007;SDS011;11168;56.976;24.168;2022-08-30T14:29:06;4.60;;;1.00;;
22007;SDS011;11168;56.976;24.168;2022-08-30T14:31:34;1.33;;;1.23;;
22007;SDS011;11168;56.976;24.168;2022-08-30T14:34:02;2.35;;;1.38;;
22007;SDS011;11168;56.976;24.168;2022-08-30T14:36:31;3.80;;;1.83;;
22007;SDS011;11168;56.976;24.168;2022-08-30T14:38:59;2.70;;;1.30;;
22007;SDS011;11168;56.976;24.168;2022-08-30T14:41:26;2.50;;;1.20;;
22007;SDS011;11168;56.976;24.168;2022-08-30T14:43:54;4.75;;;1.27;;
22007;SDS011;11168;56.976;24.168;2022-08-30T14:46:21;4.00;;;1.40;;
22007;SDS011;11168;56.976;24.168;2022-08-30T14:48:52;3.22;;;1.55;;
22007;SDS011;11168;56.976;24.168;2022-08-30T14:51:20;4.47;;;1.13;;
22007;SDS011;11168;56.976;24.168;2022-08-30T14:53:49;5.80;;;1.30;;
22007;SDS011;11168;56.976;24.168;2022-08-30T14:56:18;2.75;;;1.10;;
22007;SDS011;11168;56.976;24.168;2022-08-30T14:58:50;5.65;;;1.60;;
22007;SDS011;11168;56.976;24.168;2022-08-30T15:01:41;3.35;;;1.20;;
22007;SDS011;11168;56.976;24.168;2022-08-30T15:04:09;3.33;;;1.70;;
22007;SDS011;11168;56.976;24.168;2022-08-30T15:06:38;5.03;;;2.00;;
22007;SDS011;11168;56.976;24.168;2022-08-30T15:09:08;6.03;;;1.67;;
22007;SDS011;11168;56.976;24.168;2022-08-30T15:11:36;2.50;;;1.20;;
22007;SDS011;11168;56.976;24.168;2022-08-30T15:14:04;4.43;;;1.33;;
22007;SDS011;11168;56.976;24.168;2022-08-30T15:16:32;3.72;;;1.58;;
22007;SDS011;11168;56.976;24.168;2022-08-30T15:19:01;3.22;;;1.63;;
22007;SDS011;11168;56.976;24.168;2022-08-30T15:21:33;2.30;;;1.40;;
22007;SDS011;11168;56.976;24.168;2022-08-30T15:24:02;2.08;;;1.50;;
22007;SDS011;11168;56.976;24.168;2022-08-30T15:26:31;1.98;;;1.50;;
22007;SDS011;11168;56.976;24.168;2022-08-30T15:28:59;3.65;;;1.60;;
22007;SDS011;11168;56.976;24.168;2022-08-30T15:31:26;3.42;;;1.38;;
22007;SDS011;11168;56.976;24.168;2022-08-30T15:33:54;1.73;;;1.50;;
22007;SDS011;11168;56.976;24.168;2022-08-30T15:36:22;2.05;;;1.20;;
22007;SDS011;11168;56.976;24.168;2022-08-30T15:38:53;3.88;;;1.10;;
22007;SDS011;11168;56.976;24.168;2022-08-30T15:43:48;4.53;;;0.90;;
22007;SDS011;11168;56.976;24.168;2022-08-30T15:46:26;2.03;;;1.30;;
22007;SDS011;11168;56.976;24.168;2022-08-30T15:48:58;2.45;;;1.23;;
22007;SDS011;11168;56.976;24.168;2022-08-30T15:53:53;2.10;;;1.08;;
22007;SDS011;11168;56.976;24.168;2022-08-30T15:56:22;3.00;;;1.00;;
22007;SDS011;11168;56.976;24.168;2022-08-30T15:58:49;2.78;;;0.88;;
22007;SDS011;11168;56.976;24.168;2022-08-30T16:01:18;2.97;;;0.80;;
22007;SDS011;11168;56.976;24.168;2022-08-30T16:03:56;1.75;;;0.75;;
22007;SDS011;11168;56.976;24.168;2022-08-30T16:06:24;4.18;;;1.05;;
22007;SDS011;11168;56.976;24.168;2022-08-30T16:08:52;0.88;;;0.60;;
22007;SDS011;11168;56.976;24.168;2022-08-30T16:11:20;1.13;;;0.75;;
22007;SDS011;11168;56.976;24.168;2022-08-30T16:13:48;1.55;;;0.70;;
22007;SDS011;11168;56.976;24.168;2022-08-30T16:16:16;2.10;;;0.68;;
22007;SDS011;11168;56.976;24.168;2022-08-30T16:18:44;1.77;;;0.68;;
22007;SDS011;11168;56.976;24.168;2022-08-30T16:21:20;2.15;;;0.68;;
22007;SDS011;11168;56.976;24.168;2022-08-30T16:23:48;3.97;;;0.60;;
22007;SDS011;11168;56.976;24.168;2022-08-30T16:26:15;5.80;;;0.80;;
22007;SDS011;11168;56.976;24.168;2022-08-30T16:28:47;1.90;;;0.60;;
22007;SDS011;11168;56.976;24.168;2022-08-30T16:31:15;1.23;;;0.60;;
22007;SDS011;11168;56.976;24.168;2022-08-30T16:33:43;0.88;;;0.60;;
22007;SDS011;11168;56.976;24.168;2022-08-30T16:36:10;0.70;;;0.60;;